WetterOnline ( https://www.wetteronline.de )

Wetter aktuell Döbern

Aktuelles Wetter: Cottbus (70m)

6-stündlich | Neueste Meldungen
Ortszeit Temperatur Wetter
So, 20.09. 8:00 9.3° C leicht bewölkt
So, 20.09. 2:00 10.6° C wolkig
Sa, 19.09. 20:00 17.3° C bedeckt
Sa, 19.09. 14:00 20.5° C leicht bewölkt
Sa, 19.09. 8:00 6.1° C wolkig
Sa, 19.09. 2:00 5.8° C wolkig
Fr, 18.09. 20:00 11.7° C wolkig
Fr, 18.09. 14:00 18.4° C wolkenlos
Ortszeit Temperatur Wetter
So, 20.09. 8:30 10.8° C fast wolkenlos
So, 20.09. 8:20 10.8° C fast wolkenlos
So, 20.09. 8:10 10.2° C leicht bewölkt
So, 20.09. 8:00 9.3° C leicht bewölkt
So, 20.09. 7:50 9.3° C leicht bewölkt
So, 20.09. 7:40 8.9° C wolkig
So, 20.09. 7:30 7.9° C wolkig
So, 20.09. 7:00 7.6° C leicht bewölkt
So, 20.09. 6:30 7.0° C wolkenlos
So, 20.09. 6:00 8.5° C wolkenlos
So, 20.09. 5:30 8.4° C wolkenlos
So, 20.09. 5:00 8.4° C wolkenlos
Ortszeit Relative Feuchte Sichtweite
So, 20.09. 8:00 76% 40 km
So, 20.09. 2:00 70% 45 km
Sa, 19.09. 20:00 42% 60 km
Sa, 19.09. 14:00 29% >70 km
Sa, 19.09. 8:00 81% 40 km
Sa, 19.09. 2:00 85% 50 km
Fr, 18.09. 20:00 68% 65 km
Fr, 18.09. 14:00 32% >70 km
Ortszeit Relative Feuchte Sichtweite
So, 20.09. 8:30 71% 30 km
So, 20.09. 8:20 71% -
So, 20.09. 8:10 72% -
So, 20.09. 8:00 76% 40 km
So, 20.09. 7:50 76% -
So, 20.09. 7:40 78% -
So, 20.09. 7:30 84% 35 km
So, 20.09. 7:00 85% 40 km
So, 20.09. 6:30 87% 40 km
So, 20.09. 6:00 80% 40 km
So, 20.09. 5:30 81% 40 km
So, 20.09. 5:00 81% 40 km
Ortszeit Niederschlagsmenge Niederschlagsart
So, 20.09. 8:00 0.0 l/m2 in 12 Std. -
So, 20.09. 2:00 0.0 l/m2 in 6 Std. -
Sa, 19.09. 20:00 0.0 l/m2 in 12 Std. -
Sa, 19.09. 14:00 0.0 l/m2 in 6 Std. -
Sa, 19.09. 8:00 0.0 l/m2 in 12 Std. -
Sa, 19.09. 2:00 0.0 l/m2 in 6 Std. -
Fr, 18.09. 20:00 0.0 l/m2 in 12 Std. -
Fr, 18.09. 14:00 0.0 l/m2 in 6 Std. -
Ortszeit Niederschlagsmenge Niederschlagsart
So, 20.09. 8:30 0.0 l/m2 in 1 Std. -
So, 20.09. 8:20 keine Meldung -
So, 20.09. 8:10 keine Meldung -
So, 20.09. 8:00 0.0 l/m2 in 1 Std. -
So, 20.09. 7:50 keine Meldung -
So, 20.09. 7:40 keine Meldung -
So, 20.09. 7:30 0.0 l/m2 in 1 Std. -
So, 20.09. 7:00 0.0 l/m2 in 1 Std. -
So, 20.09. 6:30 0.0 l/m2 in 1 Std. -
So, 20.09. 6:00 0.0 l/m2 in 1 Std. -
So, 20.09. 5:30 0.0 l/m2 in 1 Std. -
So, 20.09. 5:00 0.0 l/m2 in 1 Std. -
Ortszeit Stärke Spitze Richtung
km/h Bft. km/h Grad Sektor
So, 20.09. 8:00 7 2 14 70° O
So, 20.09. 2:00 7 2 18 70° O
Sa, 19.09. 20:00 7 2 29 70° O
Sa, 19.09. 14:00 13 3 22 100° O
Sa, 19.09. 8:00 6 1 13 50° NO
Sa, 19.09. 2:00 6 1 9 40° NO
Fr, 18.09. 20:00 2 1 22 30° NO
Fr, 18.09. 14:00 7 2 18 50° NO
Ortszeit Stärke Spitze Richtung
km/h Bft. km/h Grad Sektor
So, 20.09. 8:30 6 1 11 70° O
So, 20.09. 8:20 6 1 - 70° O
So, 20.09. 8:10 6 1 - 70° O
So, 20.09. 8:00 7 2 11 70° O
So, 20.09. 7:50 7 2 - 70° O
So, 20.09. 7:40 7 2 - 70° O
So, 20.09. 7:30 7 2 11 70° O
So, 20.09. 7:00 7 2 11 70° O
So, 20.09. 6:30 4 1 7 90° O
So, 20.09. 6:00 7 2 14 70° O
So, 20.09. 5:30 6 1 11 80° O
So, 20.09. 5:00 7 2 14 70° O
Ortszeit Untergrenze Bedeckung Gattung
total tief tief mittel hoch
So, 20.09. 8:00 8400 m 6/8 0/8 - - -
So, 20.09. 2:00 8100 m 7/8 0/8 - - -
Sa, 19.09. 20:00 6900 m 8/8 8/8 - - -
Sa, 19.09. 14:00 8400 m 8/8 0/8 - - -
Sa, 19.09. 8:00 9000 m 8/8 0/8 - - -
Sa, 19.09. 2:00 9000 m 8/8 0/8 - - -
Fr, 18.09. 20:00 10500 m 8/8 0/8 - - -
Fr, 18.09. 14:00 - 0/8 0/8 - - -
Ortszeit Bedeckungsgrad in Achtel und Wolkenuntergrenze
So, 20.09. 8:30 1(8400m)
So, 20.09. 8:20 1(8400m)
So, 20.09. 8:10 3(8700m)
So, 20.09. 8:00 6(8400m) 6(9000m)
So, 20.09. 7:50 6(8400m) 6(9000m)
So, 20.09. 7:40 7(8400m) 7(9000m)
So, 20.09. 7:30 8(8400m) 8(9000m)
So, 20.09. 7:00 5(9000m) 5(9000m)
So, 20.09. 6:30 keine Wolken
So, 20.09. 6:00 keine Wolken
So, 20.09. 5:30 keine Wolken
So, 20.09. 5:00 keine Wolken
Ortszeit Luftdruck NN (hPa) Tendenz (hPa in 3 Std.)
So, 20.09. 8:00 1020 + 0,2
So, 20.09. 2:00 1021 - 0,6
Sa, 19.09. 20:00 1021 - 0,6
Sa, 19.09. 14:00 1023 - 1,2
Sa, 19.09. 8:00 1025 - 0,6
Sa, 19.09. 2:00 1027 - 0,4
Fr, 18.09. 20:00 1027 - 0,6
Fr, 18.09. 14:00 1029 - 1,2
Ortszeit Luftdruck NN (hPa) Tendenz (hPa in 3 Std.)
So, 20.09. 8:30 1020 + 0,1
So, 20.09. 8:20 1020 keine Meldung
So, 20.09. 8:10 1020 keine Meldung
So, 20.09. 8:00 1020 + 0,2
So, 20.09. 7:50 1020 keine Meldung
So, 20.09. 7:40 1020 keine Meldung
So, 20.09. 7:30 1020 + 0,1
So, 20.09. 7:00 1020 - 0,1
So, 20.09. 6:30 1020 - 0,3
So, 20.09. 6:00 1020 - 0,6
So, 20.09. 5:30 1020 - 0,4
So, 20.09. 5:00 1020 - 0,6
Ortszeit Schneehöhe (cm)
So, 20.09. 8:00 -
So, 20.09. 2:00 -
Sa, 19.09. 20:00 -
Sa, 19.09. 14:00 -
Sa, 19.09. 8:00 -
Sa, 19.09. 2:00 -
Fr, 18.09. 20:00 -
Fr, 18.09. 14:00 -
Ortszeit Schneehöhe (cm)
So, 20.09. 8:30 -
So, 20.09. 8:20 -
So, 20.09. 8:10 -
So, 20.09. 8:00 -
So, 20.09. 7:50 -
So, 20.09. 7:40 -
So, 20.09. 7:30 -
So, 20.09. 7:00 -
So, 20.09. 6:30 -
So, 20.09. 6:00 -
So, 20.09. 5:30 -
So, 20.09. 5:00 -
Link zu dieser Seite / Seite empfehlen

Das Wetter in ...